createdAt,value
2018-09-30T00:00:51.586Z,55.40
2018-09-30T00:03:19.795Z,55.70
2018-09-30T00:05:47.972Z,55.80
2018-09-30T00:09:45.405Z,55.80
2018-09-30T00:12:13.605Z,55.90
2018-09-30T00:14:41.810Z,56.50
2018-09-30T00:17:10.163Z,56.70
2018-09-30T00:19:38.618Z,56.90
2018-09-30T00:22:06.785Z,56.80
2018-09-30T00:24:40.306Z,56.80
2018-09-30T00:27:13.933Z,57.10
2018-09-30T00:29:42.122Z,57.30
2018-09-30T00:32:10.325Z,57.40
2018-09-30T00:34:38.543Z,57.60
2018-09-30T00:37:06.728Z,57.50
2018-09-30T00:39:34.945Z,57.60
2018-09-30T00:42:03.117Z,57.60
2018-09-30T00:44:31.296Z,57.70
2018-09-30T00:46:59.491Z,58.00
2018-09-30T00:49:27.672Z,57.80
2018-09-30T00:51:55.933Z,58.00
2018-09-30T00:54:24.138Z,58.00
2018-09-30T00:56:52.361Z,57.90
2018-09-30T00:59:20.579Z,57.80
2018-09-30T01:01:48.764Z,57.90
2018-09-30T01:04:16.965Z,57.90
2018-09-30T01:06:45.177Z,57.80
2018-09-30T01:09:14.669Z,57.80
2018-09-30T01:11:43.454Z,58.00
2018-09-30T01:14:11.654Z,58.50
2018-09-30T01:16:39.897Z,58.70
2018-09-30T01:19:08.129Z,59.00
2018-09-30T01:21:36.649Z,59.10
2018-09-30T01:24:05.073Z,59.10
2018-09-30T01:26:33.538Z,59.20
2018-09-30T01:29:01.774Z,59.20
2018-09-30T01:31:29.972Z,59.00
2018-09-30T01:33:58.373Z,59.20
2018-09-30T01:36:26.574Z,58.90
2018-09-30T01:38:54.762Z,59.30
2018-09-30T01:41:23.173Z,59.20
2018-09-30T01:43:51.377Z,59.30
2018-09-30T01:46:19.793Z,59.20
2018-09-30T01:48:47.982Z,59.20
2018-09-30T01:51:16.162Z,59.40
2018-09-30T01:53:44.338Z,59.50
2018-09-30T01:56:12.690Z,59.60
2018-09-30T01:58:40.887Z,59.70
2018-09-30T02:01:09.085Z,60.70
2018-09-30T02:03:37.292Z,60.00
2018-09-30T02:06:05.592Z,60.10
2018-09-30T02:08:34.046Z,60.10
2018-09-30T02:11:02.234Z,60.00
2018-09-30T02:13:30.421Z,60.10
2018-09-30T02:15:58.650Z,60.30
2018-09-30T02:18:26.873Z,60.60
2018-09-30T02:20:55.065Z,60.80
2018-09-30T02:23:23.283Z,61.00
2018-09-30T02:25:51.474Z,61.40
2018-09-30T02:28:19.670Z,61.50
2018-09-30T02:30:48.174Z,61.50
2018-09-30T02:33:16.371Z,61.60
2018-09-30T02:35:44.562Z,61.50
2018-09-30T02:38:12.776Z,61.60
2018-09-30T02:40:40.953Z,61.40
2018-09-30T02:43:09.157Z,61.40
2018-09-30T02:45:37.345Z,61.70
2018-09-30T02:48:05.525Z,61.60
2018-09-30T02:50:33.772Z,61.60
2018-09-30T02:53:02.851Z,61.60
2018-09-30T02:55:31.053Z,61.70
2018-09-30T02:57:59.250Z,62.10
2018-09-30T03:00:27.420Z,62.70
2018-09-30T03:02:55.599Z,62.70
2018-09-30T03:05:23.919Z,62.60
2018-09-30T03:07:57.395Z,62.60
2018-09-30T03:10:25.593Z,62.90
2018-09-30T03:12:53.772Z,63.70
2018-09-30T03:15:22.068Z,64.00
2018-09-30T03:17:50.266Z,64.10
2018-09-30T03:20:18.457Z,64.40
2018-09-30T03:22:46.675Z,64.00
2018-09-30T03:25:14.897Z,64.30
2018-09-30T03:27:43.076Z,64.40
2018-09-30T03:30:11.313Z,64.40
2018-09-30T03:32:39.489Z,64.70
2018-09-30T03:35:07.673Z,64.90
2018-09-30T03:37:35.931Z,65.00
2018-09-30T03:40:04.118Z,65.10
2018-09-30T03:42:32.310Z,66.10
2018-09-30T03:45:00.502Z,66.50
2018-09-30T03:47:29.341Z,66.60
2018-09-30T03:49:57.529Z,67.00
2018-09-30T03:52:25.706Z,67.40
2018-09-30T03:54:54.129Z,67.70
2018-09-30T03:57:22.324Z,68.00
2018-09-30T03:59:50.721Z,68.50
2018-09-30T04:02:18.918Z,69.20
2018-09-30T04:04:47.109Z,69.40
2018-09-30T04:07:15.543Z,69.20
2018-09-30T04:09:43.728Z,69.30
2018-09-30T04:12:11.936Z,69.70
2018-09-30T04:14:40.137Z,70.20
2018-09-30T04:17:08.448Z,70.50
2018-09-30T04:19:36.523Z,71.40
2018-09-30T04:22:04.771Z,73.50
2018-09-30T04:24:32.957Z,74.80
2018-09-30T04:27:01.223Z,75.50
2018-09-30T04:29:29.437Z,76.70
2018-09-30T04:31:57.668Z,77.10
2018-09-30T04:34:25.869Z,77.50
2018-09-30T04:36:54.078Z,79.40
2018-09-30T04:39:22.283Z,80.90
2018-09-30T04:41:50.459Z,80.90
2018-09-30T04:44:18.805Z,80.90
2018-09-30T04:46:46.998Z,80.80
2018-09-30T04:49:15.181Z,81.30
2018-09-30T04:51:43.379Z,81.60
2018-09-30T04:54:11.602Z,81.90
2018-09-30T04:56:39.795Z,82.40
2018-09-30T04:59:08.011Z,82.30
2018-09-30T05:01:36.188Z,82.80
2018-09-30T05:04:04.373Z,83.10
2018-09-30T05:06:32.641Z,82.60
2018-09-30T05:09:00.845Z,82.50
2018-09-30T05:11:29.025Z,82.90
2018-09-30T05:13:57.215Z,83.10
2018-09-30T05:16:25.438Z,82.90
2018-09-30T05:18:53.612Z,82.40
2018-09-30T05:21:21.809Z,82.60
2018-09-30T05:23:50.025Z,82.50
2018-09-30T05:26:18.224Z,81.80
2018-09-30T05:28:46.433Z,82.10
2018-09-30T05:31:14.698Z,82.90
2018-09-30T05:33:42.850Z,83.30
2018-09-30T05:36:11.073Z,83.60
2018-09-30T05:38:39.268Z,83.50
2018-09-30T05:41:07.473Z,84.50
2018-09-30T05:43:35.718Z,85.30
2018-09-30T05:46:03.941Z,85.90
2018-09-30T05:48:32.133Z,86.90
2018-09-30T05:51:00.337Z,88.20
2018-09-30T05:53:28.513Z,89.30
2018-09-30T05:55:56.701Z,90.00
2018-09-30T05:58:24.921Z,90.30
2018-09-30T06:00:53.117Z,90.70
2018-09-30T06:03:21.306Z,91.20
2018-09-30T06:05:49.502Z,91.60
2018-09-30T06:08:17.698Z,92.40
2018-09-30T06:10:45.905Z,92.70
2018-09-30T06:13:14.082Z,93.00
2018-09-30T06:15:42.336Z,92.90
2018-09-30T06:18:10.502Z,92.90
2018-09-30T06:20:38.937Z,92.70
2018-09-30T06:24:36.585Z,92.70
2018-09-30T06:27:04.785Z,92.80
2018-09-30T06:29:32.970Z,93.50
2018-09-30T06:32:01.450Z,93.80
2018-09-30T06:34:29.587Z,94.20
2018-09-30T06:36:57.785Z,94.00
2018-09-30T06:39:25.975Z,93.80
2018-09-30T06:41:54.186Z,93.70
2018-09-30T06:44:22.362Z,94.00
2018-09-30T06:46:50.618Z,94.00
2018-09-30T06:49:18.820Z,94.00
2018-09-30T06:51:47.043Z,94.00
2018-09-30T06:54:15.364Z,94.00
2018-09-30T06:56:43.549Z,93.80
2018-09-30T06:59:11.757Z,93.70
2018-09-30T07:01:40.091Z,93.90
2018-09-30T07:04:08.264Z,94.10
2018-09-30T07:06:36.475Z,94.10
2018-09-30T07:09:06.593Z,94.00
2018-09-30T07:11:34.846Z,94.20
2018-09-30T07:14:03.049Z,94.10
2018-09-30T07:16:31.257Z,94.10
2018-09-30T07:18:59.439Z,94.30
2018-09-30T07:21:27.635Z,93.90
2018-09-30T07:23:55.830Z,93.70
2018-09-30T07:26:24.057Z,94.00
2018-09-30T07:28:52.263Z,93.50
2018-09-30T07:31:20.445Z,93.00
2018-09-30T07:33:48.689Z,92.90
2018-09-30T07:36:16.859Z,92.70
2018-09-30T07:38:45.170Z,92.40
2018-09-30T07:41:13.357Z,92.50
2018-09-30T07:43:41.529Z,92.70
2018-09-30T07:46:09.765Z,92.40
2018-09-30T07:48:37.977Z,92.30
2018-09-30T07:51:06.166Z,92.00
2018-09-30T07:53:34.389Z,91.70
2018-09-30T07:56:02.584Z,91.90
2018-09-30T07:58:30.785Z,92.30
2018-09-30T08:00:59.359Z,92.20
2018-09-30T08:03:27.541Z,91.90
2018-09-30T08:05:55.734Z,92.00
2018-09-30T08:08:23.937Z,91.70
2018-09-30T08:10:52.153Z,91.70
2018-09-30T08:13:20.359Z,92.50
2018-09-30T08:15:48.555Z,92.50
2018-09-30T08:18:17.013Z,92.00
2018-09-30T08:20:45.245Z,91.70
2018-09-30T08:23:13.535Z,91.60
2018-09-30T08:25:41.713Z,91.80
2018-09-30T08:28:09.917Z,92.10
2018-09-30T08:30:38.139Z,93.60
2018-09-30T08:33:06.325Z,93.70
2018-09-30T08:35:34.522Z,93.50
2018-09-30T08:38:08.157Z,92.90
2018-09-30T08:40:41.625Z,92.50
2018-09-30T08:43:09.879Z,92.50
2018-09-30T08:45:38.132Z,92.00
2018-09-30T08:48:06.293Z,91.80
2018-09-30T08:50:34.605Z,91.90
2018-09-30T08:53:02.797Z,91.80
2018-09-30T08:55:30.993Z,91.70
2018-09-30T08:57:59.165Z,91.50
2018-09-30T09:00:27.411Z,91.00
2018-09-30T09:02:55.672Z,90.90
2018-09-30T09:05:25.710Z,90.70
2018-09-30T09:07:53.924Z,90.30
2018-09-30T09:10:22.317Z,90.00
2018-09-30T09:12:50.504Z,88.70
2018-09-30T09:16:48.169Z,88.60
2018-09-30T09:19:16.645Z,87.10
2018-09-30T09:21:44.856Z,87.00
2018-09-30T09:24:13.073Z,86.70
2018-09-30T09:26:41.318Z,85.90
2018-09-30T09:29:09.558Z,85.80
2018-09-30T09:31:37.862Z,86.90
2018-09-30T09:34:06.062Z,87.00
2018-09-30T09:36:34.985Z,86.80
2018-09-30T09:39:06.437Z,86.90
2018-09-30T09:41:34.650Z,85.50
2018-09-30T09:44:02.843Z,85.00
2018-09-30T09:46:31.097Z,84.20
2018-09-30T09:48:59.485Z,83.80
2018-09-30T09:51:27.673Z,83.40
2018-09-30T09:53:55.870Z,82.00
2018-09-30T09:56:24.057Z,82.20
2018-09-30T09:58:52.446Z,82.20
2018-09-30T10:01:20.633Z,81.70
2018-09-30T10:03:48.840Z,80.90
2018-09-30T10:06:17.038Z,79.90
2018-09-30T10:08:45.276Z,79.10
2018-09-30T10:11:13.837Z,78.20
2018-09-30T10:13:42.045Z,77.40
2018-09-30T10:16:10.224Z,76.70
2018-09-30T10:18:38.433Z,75.30
2018-09-30T10:21:06.329Z,73.60
2018-09-30T10:23:34.541Z,72.70
2018-09-30T10:26:02.865Z,70.00
2018-09-30T10:28:31.115Z,68.30
2018-09-30T10:30:59.341Z,65.70
2018-09-30T10:33:28.012Z,62.30
2018-09-30T10:35:56.216Z,59.20
2018-09-30T10:38:24.440Z,57.10
2018-09-30T10:40:52.625Z,54.50
2018-09-30T10:43:20.821Z,52.00
2018-09-30T10:45:49.001Z,50.70
2018-09-30T10:48:17.328Z,49.10
2018-09-30T10:50:45.460Z,45.40
2018-09-30T10:53:13.817Z,41.70
2018-09-30T10:55:42.018Z,39.00
2018-09-30T10:58:10.214Z,35.20
2018-09-30T11:00:38.633Z,33.10
2018-09-30T11:03:06.860Z,30.50
2018-09-30T11:05:35.102Z,29.40
2018-09-30T11:08:03.459Z,28.10
2018-09-30T11:10:31.662Z,27.10
2018-09-30T11:12:59.877Z,26.00
2018-09-30T11:15:28.245Z,25.60
2018-09-30T11:17:56.541Z,25.20
2018-09-30T11:20:24.741Z,24.70
2018-09-30T11:22:53.242Z,24.30
2018-09-30T11:25:21.412Z,23.50
2018-09-30T11:27:49.621Z,23.20
2018-09-30T11:30:17.949Z,23.10
2018-09-30T11:32:46.473Z,23.20
2018-09-30T11:35:14.711Z,22.80
2018-09-30T11:37:43.230Z,22.60
2018-09-30T11:40:11.410Z,22.30
2018-09-30T11:42:39.715Z,21.90
2018-09-30T11:45:07.901Z,21.50
2018-09-30T11:47:36.091Z,21.00
2018-09-30T11:50:04.510Z,20.90
2018-09-30T11:52:32.759Z,20.50
2018-09-30T11:55:00.941Z,20.40
2018-09-30T11:57:29.141Z,20.40
2018-09-30T11:59:57.333Z,20.20
2018-09-30T12:02:25.623Z,20.10
2018-09-30T12:04:53.737Z,19.90
2018-09-30T12:07:21.936Z,19.80
2018-09-30T12:09:50.153Z,19.70
2018-09-30T12:12:18.387Z,19.60
2018-09-30T12:14:46.561Z,19.90
2018-09-30T12:17:14.777Z,20.20
2018-09-30T12:19:42.977Z,20.00
2018-09-30T12:22:11.185Z,20.00
2018-09-30T12:24:39.829Z,20.20
2018-09-30T12:27:08.218Z,20.00
2018-09-30T12:29:36.425Z,20.10
2018-09-30T12:32:04.626Z,20.20
2018-09-30T12:34:32.810Z,20.20
2018-09-30T12:37:01.033Z,20.00
2018-09-30T12:39:29.265Z,19.90
2018-09-30T12:41:57.506Z,19.90
2018-09-30T12:44:25.793Z,20.30
2018-09-30T12:46:54.333Z,20.80
2018-09-30T12:49:22.720Z,20.60
2018-09-30T12:51:50.912Z,20.70
2018-09-30T12:54:19.179Z,20.50
2018-09-30T12:56:47.667Z,20.40
2018-09-30T12:59:15.926Z,20.00
2018-09-30T13:01:44.173Z,19.60
2018-09-30T13:04:12.387Z,19.30
2018-09-30T13:06:40.732Z,19.80
2018-09-30T13:09:09.755Z,19.40
2018-09-30T13:11:38.026Z,19.00
2018-09-30T13:14:06.710Z,18.70
2018-09-30T13:16:35.004Z,18.70
2018-09-30T13:19:03.216Z,19.10
2018-09-30T13:21:31.438Z,19.10
2018-09-30T13:23:59.714Z,19.20
2018-09-30T13:26:27.944Z,19.10
2018-09-30T13:28:56.152Z,18.90
2018-09-30T13:31:24.620Z,19.10
2018-09-30T13:33:52.925Z,19.10
2018-09-30T13:36:21.117Z,19.20
2018-09-30T13:38:49.337Z,19.10
2018-09-30T13:41:17.934Z,19.00
2018-09-30T13:43:46.249Z,19.20
2018-09-30T13:46:14.473Z,19.20
2018-09-30T13:48:42.670Z,19.20
2018-09-30T13:51:10.927Z,19.30
2018-09-30T13:53:39.170Z,19.40
2018-09-30T13:56:07.432Z,19.30
2018-09-30T13:58:35.637Z,19.30
2018-09-30T14:01:03.978Z,19.20
2018-09-30T14:03:32.156Z,19.30
2018-09-30T14:06:00.429Z,19.50
2018-09-30T14:08:28.808Z,19.30
2018-09-30T14:10:57.187Z,19.20
2018-09-30T14:13:25.372Z,19.10
2018-09-30T14:15:53.569Z,19.00
2018-09-30T14:18:21.771Z,18.90
2018-09-30T14:20:49.973Z,18.90
2018-09-30T14:23:18.353Z,19.00
2018-09-30T14:25:46.565Z,19.20
2018-09-30T14:28:14.760Z,19.20
2018-09-30T14:30:42.989Z,19.10
2018-09-30T14:33:11.255Z,18.90
2018-09-30T14:35:39.803Z,18.90
2018-09-30T14:38:08.017Z,19.00
2018-09-30T14:40:36.205Z,19.60
2018-09-30T14:43:04.430Z,19.20
2018-09-30T14:45:32.681Z,19.80
2018-09-30T14:48:00.944Z,21.40
2018-09-30T14:50:29.109Z,23.30
2018-09-30T14:52:57.618Z,25.30
2018-09-30T14:55:25.813Z,27.10
2018-09-30T14:57:54.257Z,28.60
2018-09-30T15:00:22.456Z,29.90
2018-09-30T15:02:50.685Z,31.00
2018-09-30T15:05:18.927Z,32.20
2018-09-30T15:07:47.114Z,33.50
2018-09-30T15:10:15.333Z,34.80
2018-09-30T15:12:43.584Z,36.10
2018-09-30T15:15:11.796Z,37.10
2018-09-30T15:17:39.991Z,38.20
2018-09-30T15:20:08.217Z,39.10
2018-09-30T15:22:36.525Z,40.30
2018-09-30T15:25:04.745Z,41.20
2018-09-30T15:27:32.938Z,41.80
2018-09-30T15:30:01.193Z,42.60
2018-09-30T15:32:29.401Z,43.40
2018-09-30T15:34:57.626Z,43.80
2018-09-30T15:37:26.125Z,43.90
2018-09-30T15:39:54.325Z,44.30
2018-09-30T15:42:22.605Z,44.80
2018-09-30T15:44:50.968Z,45.20
2018-09-30T15:47:19.352Z,45.50
2018-09-30T15:49:47.597Z,45.80
2018-09-30T15:52:15.992Z,46.20
2018-09-30T15:54:44.207Z,46.40
2018-09-30T15:57:12.401Z,47.00
2018-09-30T15:59:40.597Z,47.20
2018-09-30T16:02:09.011Z,47.60
2018-09-30T16:04:37.424Z,47.90
2018-09-30T16:07:05.894Z,48.20
2018-09-30T16:09:34.334Z,48.30
2018-09-30T16:12:02.688Z,48.80
2018-09-30T16:14:30.906Z,49.20
2018-09-30T16:16:59.161Z,49.60
2018-09-30T16:19:27.825Z,49.80
2018-09-30T16:21:56.347Z,50.10
2018-09-30T16:24:24.522Z,50.30
2018-09-30T16:26:53.105Z,50.50
2018-09-30T16:29:21.285Z,51.10
2018-09-30T16:31:49.517Z,51.70
2018-09-30T16:34:17.729Z,51.90
2018-09-30T16:36:45.918Z,52.60
2018-09-30T16:39:14.109Z,53.10
2018-09-30T16:41:42.321Z,53.50
2018-09-30T16:44:10.531Z,54.10
2018-09-30T16:46:38.847Z,54.80
2018-09-30T16:49:07.296Z,55.20
2018-09-30T16:51:35.545Z,55.60
2018-09-30T16:54:03.771Z,56.30
2018-09-30T16:56:32.218Z,57.20
2018-09-30T16:59:00.417Z,58.30
2018-09-30T17:01:28.655Z,58.40
2018-09-30T17:03:56.825Z,59.30
2018-09-30T17:06:25.014Z,59.80
2018-09-30T17:08:53.252Z,60.40
2018-09-30T17:11:21.470Z,61.40
2018-09-30T17:13:49.668Z,61.90
2018-09-30T17:16:17.869Z,62.70
2018-09-30T17:18:46.085Z,63.50
2018-09-30T17:21:14.309Z,64.70
2018-09-30T17:23:42.547Z,65.80
2018-09-30T17:26:10.734Z,66.30
2018-09-30T17:28:38.951Z,67.20
2018-09-30T17:31:07.481Z,68.30
2018-09-30T17:33:35.663Z,69.60
2018-09-30T17:36:03.858Z,70.80
2018-09-30T17:38:32.056Z,72.00
2018-09-30T17:41:00.255Z,73.00
2018-09-30T17:43:28.464Z,73.50
2018-09-30T17:45:56.673Z,74.10
2018-09-30T17:48:24.997Z,75.10
2018-09-30T17:50:53.229Z,76.30
2018-09-30T17:53:21.465Z,76.10
2018-09-30T17:55:49.987Z,77.50
2018-09-30T17:58:18.201Z,79.00
2018-09-30T18:00:46.379Z,80.50
2018-09-30T18:03:14.570Z,81.40
2018-09-30T18:05:42.765Z,82.00
2018-09-30T18:08:11.106Z,83.10
2018-09-30T18:10:39.309Z,84.20
2018-09-30T18:13:07.493Z,85.20
2018-09-30T18:15:35.936Z,86.70
2018-09-30T18:18:04.125Z,87.60
2018-09-30T18:20:32.329Z,88.40
2018-09-30T18:23:00.521Z,89.30
2018-09-30T18:25:28.722Z,89.70
2018-09-30T18:27:56.971Z,90.20
2018-09-30T18:30:25.172Z,90.70
2018-09-30T18:32:53.373Z,90.70
2018-09-30T18:35:21.598Z,91.00
2018-09-30T18:37:49.853Z,91.20
2018-09-30T18:40:18.046Z,91.40
2018-09-30T18:42:46.226Z,91.40
2018-09-30T18:45:14.428Z,91.60
2018-09-30T18:47:42.636Z,91.80
2018-09-30T18:50:10.866Z,92.10
2018-09-30T18:52:39.081Z,92.40
2018-09-30T18:55:07.334Z,92.60
2018-09-30T18:57:35.514Z,92.90
2018-09-30T19:00:04.037Z,93.10
2018-09-30T19:02:32.245Z,93.50
2018-09-30T19:05:00.452Z,93.80
2018-09-30T19:07:28.682Z,94.20
2018-09-30T19:09:56.890Z,94.50
2018-09-30T19:12:25.090Z,94.50
2018-09-30T19:14:53.286Z,94.40
2018-09-30T19:17:21.472Z,94.70
2018-09-30T19:19:49.817Z,94.80
2018-09-30T19:22:18.018Z,94.60
2018-09-30T19:24:46.224Z,94.70
2018-09-30T19:27:14.418Z,94.70
2018-09-30T19:29:42.661Z,94.90
2018-09-30T19:32:10.945Z,95.00
2018-09-30T19:34:39.147Z,95.20
2018-09-30T19:37:07.346Z,95.50
2018-09-30T19:39:35.545Z,95.70
2018-09-30T19:42:03.775Z,96.20
2018-09-30T19:44:32.061Z,96.40
2018-09-30T19:47:00.250Z,96.60
2018-09-30T19:49:28.455Z,96.80
2018-09-30T19:51:56.654Z,97.00
2018-09-30T19:54:24.890Z,97.10
2018-09-30T19:56:53.174Z,97.20
2018-09-30T19:59:21.414Z,97.70
2018-09-30T20:01:49.617Z,98.10
2018-09-30T20:04:17.806Z,98.40
2018-09-30T20:06:46.417Z,98.60
2018-09-30T20:09:14.772Z,98.80
2018-09-30T20:11:42.853Z,99.20
2018-09-30T20:14:11.050Z,99.30
2018-09-30T20:16:39.438Z,99.80
2018-09-30T20:19:07.593Z,99.90
2018-09-30T20:21:35.803Z,99.90
2018-09-30T20:24:03.993Z,99.90
2018-09-30T20:26:32.213Z,99.90
2018-09-30T20:29:00.430Z,99.90
2018-09-30T20:31:28.638Z,99.90
2018-09-30T20:33:56.877Z,99.90
2018-09-30T20:36:25.089Z,99.90
2018-09-30T20:38:53.297Z,99.90
2018-09-30T20:41:21.485Z,99.90
2018-09-30T20:43:50.113Z,99.90
2018-09-30T20:46:19.319Z,99.90
2018-09-30T20:48:47.573Z,99.90
2018-09-30T20:51:15.858Z,99.90
2018-09-30T20:53:44.045Z,99.90
2018-09-30T20:56:12.264Z,99.90
2018-09-30T20:58:40.644Z,99.90
2018-09-30T21:01:09.173Z,99.90
2018-09-30T21:03:37.667Z,99.90
2018-09-30T21:06:15.614Z,99.90
2018-09-30T21:08:44.889Z,99.90
2018-09-30T21:11:13.115Z,99.90
2018-09-30T21:13:41.565Z,99.90
2018-09-30T21:16:09.758Z,99.90
2018-09-30T21:18:37.944Z,99.90
2018-09-30T21:21:06.153Z,99.90
2018-09-30T21:23:34.571Z,99.90
2018-09-30T21:26:02.745Z,99.90
2018-09-30T21:28:30.958Z,99.90
2018-09-30T21:30:59.169Z,99.90
2018-09-30T21:33:27.396Z,99.90
2018-09-30T21:35:55.584Z,99.90
2018-09-30T21:38:23.801Z,99.90
2018-09-30T21:40:51.997Z,99.90
2018-09-30T21:43:20.237Z,99.90
2018-09-30T21:45:48.417Z,99.90
2018-09-30T21:48:17.926Z,99.90
2018-09-30T21:50:46.108Z,99.90
2018-09-30T21:53:15.469Z,99.90
2018-09-30T21:55:43.810Z,99.90
2018-09-30T21:58:12.031Z,99.90
2018-09-30T22:00:43.484Z,99.90
2018-09-30T22:03:12.785Z,99.90
2018-09-30T22:05:41.009Z,99.90
2018-09-30T22:08:10.203Z,99.90
2018-09-30T22:10:39.963Z,99.90
2018-09-30T22:13:08.449Z,99.90
2018-09-30T22:15:36.696Z,99.90
2018-09-30T22:18:05.181Z,99.90
2018-09-30T22:20:33.373Z,99.90
2018-09-30T22:23:01.574Z,99.90
2018-09-30T22:26:59.283Z,99.90
2018-09-30T22:29:27.437Z,99.90
2018-09-30T22:31:55.646Z,99.90
2018-09-30T22:34:24.204Z,99.90
2018-09-30T22:36:52.483Z,99.90
2018-09-30T22:39:20.889Z,99.90
2018-09-30T22:41:49.125Z,99.90
2018-09-30T22:44:17.326Z,99.90
2018-09-30T22:46:45.563Z,99.90
2018-09-30T22:49:13.762Z,99.90
2018-09-30T22:51:41.951Z,99.90
2018-09-30T22:54:10.166Z,99.90
2018-09-30T22:56:38.348Z,99.90
2018-09-30T22:59:06.565Z,99.90
2018-09-30T23:01:35.036Z,99.90
2018-09-30T23:04:03.248Z,99.90
2018-09-30T23:06:31.438Z,99.90
2018-09-30T23:08:59.640Z,99.90
2018-09-30T23:11:27.842Z,99.90
2018-09-30T23:13:56.044Z,99.90
2018-09-30T23:16:24.240Z,99.90
2018-09-30T23:18:52.463Z,99.90
2018-09-30T23:21:20.638Z,99.90
2018-09-30T23:23:48.838Z,99.90
2018-09-30T23:26:17.058Z,99.90
2018-09-30T23:28:45.285Z,99.90
2018-09-30T23:31:13.468Z,99.90
2018-09-30T23:33:41.666Z,99.90
2018-09-30T23:36:09.891Z,99.90
2018-09-30T23:38:38.077Z,99.90
2018-09-30T23:41:06.805Z,99.90
2018-09-30T23:43:35.015Z,99.90
2018-09-30T23:46:03.466Z,99.90
2018-09-30T23:48:31.679Z,99.90
2018-09-30T23:50:59.905Z,99.90
2018-09-30T23:53:28.080Z,99.90
2018-09-30T23:55:56.273Z,99.90
2018-09-30T23:58:24.456Z,99.90
